createdAt,value
2022-10-22T00:00:30.507Z,96135.78
2022-10-22T00:01:02.312Z,96133.88
2022-10-22T00:01:34.616Z,96126.19
2022-10-22T00:02:07.839Z,96132.00
2022-10-22T00:02:40.187Z,96130.56
2022-10-22T00:03:12.242Z,96123.94
2022-10-22T00:03:44.255Z,96128.66
2022-10-22T00:04:16.398Z,96137.50
2022-10-22T00:04:49.458Z,96136.19
2022-10-22T00:05:21.341Z,96133.13
2022-10-22T00:05:53.231Z,96135.44
2022-10-22T00:06:25.408Z,96139.28
2022-10-22T00:06:57.159Z,96140.84
2022-10-22T00:07:28.948Z,96140.53
2022-10-22T00:08:00.711Z,96137.06
2022-10-22T00:08:32.808Z,96140.13
2022-10-22T00:09:05.464Z,96138.97
2022-10-22T00:09:37.834Z,96145.50
2022-10-22T00:10:10.163Z,96142.75
2022-10-22T00:10:42.302Z,96144.66
2022-10-22T00:11:17.284Z,96155.09
2022-10-22T00:11:49.780Z,96153.94
2022-10-22T00:12:22.336Z,96148.19
2022-10-22T00:12:57.613Z,96149.72
2022-10-22T00:13:32.810Z,96150.88
2022-10-22T00:14:04.940Z,96154.25
2022-10-22T00:14:37.821Z,96154.63
2022-10-22T00:15:11.237Z,96150.00
2022-10-22T00:15:43.176Z,96147.41
2022-10-22T00:16:15.084Z,96144.03
2022-10-22T00:16:46.882Z,96153.25
2022-10-22T00:17:18.808Z,96141.66
2022-10-22T00:17:50.640Z,96144.41
2022-10-22T00:18:22.497Z,96155.50
2022-10-22T00:18:54.274Z,96155.09
2022-10-22T00:19:27.628Z,96153.59
2022-10-22T00:19:59.562Z,96159.28
2022-10-22T00:20:31.418Z,96159.22
2022-10-22T00:21:03.521Z,96160.34
2022-10-22T00:21:35.974Z,96158.19
2022-10-22T00:22:10.070Z,96163.47
2022-10-22T00:22:42.026Z,96163.09
2022-10-22T00:23:13.880Z,96166.53
2022-10-22T00:23:45.665Z,96159.28
2022-10-22T00:24:17.520Z,96162.72
2022-10-22T00:24:49.379Z,96166.91
2022-10-22T00:25:21.286Z,96162.31
2022-10-22T00:25:53.812Z,96166.50
2022-10-22T00:26:25.695Z,96160.00
2022-10-22T00:26:58.084Z,96159.28
2022-10-22T00:27:30.435Z,96156.63
2022-10-22T00:28:03.549Z,96156.63
2022-10-22T00:28:35.362Z,96164.69
2022-10-22T00:29:07.347Z,96157.06
2022-10-22T00:29:39.361Z,96154.00
2022-10-22T00:30:12.836Z,96162.47
2022-10-22T00:30:44.745Z,96159.75
2022-10-22T00:31:16.734Z,96157.06
2022-10-22T00:31:50.069Z,96163.25
2022-10-22T00:32:21.917Z,96159.44
2022-10-22T00:32:53.714Z,96167.84
2022-10-22T00:33:26.383Z,96164.81
2022-10-22T00:33:58.263Z,96165.13
2022-10-22T00:34:30.226Z,96168.53
2022-10-22T00:35:02.049Z,96176.25
2022-10-22T00:35:34.851Z,96174.66
2022-10-22T00:36:07.192Z,96183.09
2022-10-22T00:36:38.940Z,96181.91
2022-10-22T00:37:10.757Z,96182.66
2022-10-22T00:37:43.647Z,96184.63
2022-10-22T00:38:15.981Z,96176.88
2022-10-22T00:38:47.760Z,96180.28
2022-10-22T00:39:22.360Z,96184.50
2022-10-22T00:39:54.127Z,96184.50
2022-10-22T00:40:26.237Z,96181.91
2022-10-22T00:40:58.091Z,96178.47
2022-10-22T00:41:29.936Z,96179.56
2022-10-22T00:42:01.745Z,96177.94
2022-10-22T00:42:33.538Z,96178.72
2022-10-22T00:43:05.400Z,96180.72
2022-10-22T00:43:58.636Z,96177.28
2022-10-22T00:45:01.547Z,96187.56
2022-10-22T00:45:34.735Z,96179.56
2022-10-22T00:46:06.547Z,96179.22
2022-10-22T00:46:38.364Z,96178.13
2022-10-22T00:47:10.190Z,96175.44
2022-10-22T00:47:44.587Z,96176.66
2022-10-22T00:48:22.003Z,96179.31
2022-10-22T00:48:56.868Z,96171.59
2022-10-22T00:49:28.757Z,96170.84
2022-10-22T00:50:38.902Z,96163.84
2022-10-22T00:51:10.731Z,96167.31
2022-10-22T00:51:42.519Z,96167.28
2022-10-22T00:52:14.654Z,96154.88
2022-10-22T00:52:47.103Z,96168.25
2022-10-22T00:53:23.019Z,96166.63
2022-10-22T00:54:01.625Z,96165.63
2022-10-22T00:54:34.538Z,96159.91
2022-10-22T00:55:07.475Z,96167.50
2022-10-22T00:55:41.877Z,96163.34
2022-10-22T00:56:14.141Z,96167.59
2022-10-22T00:56:46.435Z,96161.47
2022-10-22T00:57:20.132Z,96163.84
2022-10-22T00:57:55.704Z,96158.19
2022-10-22T00:58:31.085Z,96157.81
2022-10-22T00:59:03.866Z,96149.38
2022-10-22T00:59:37.104Z,96160.03
2022-10-22T01:00:09.745Z,96150.44
2022-10-22T01:00:42.111Z,96154.63
2022-10-22T01:01:18.346Z,96163.66
2022-10-22T01:01:50.785Z,96165.13
2022-10-22T01:02:22.812Z,96167.41
2022-10-22T01:02:55.467Z,96167.88
2022-10-22T01:03:28.373Z,96176.72
2022-10-22T01:04:01.109Z,96175.56
2022-10-22T01:04:32.927Z,96180.88
2022-10-22T01:05:05.194Z,96177.84
2022-10-22T01:05:43.914Z,96179.75
2022-10-22T01:06:23.150Z,96184.13
2022-10-22T01:06:55.387Z,96182.34
2022-10-22T01:07:27.321Z,96188.16
2022-10-22T01:07:59.482Z,96185.66
2022-10-22T01:09:10.209Z,96185.38
2022-10-22T01:09:50.884Z,96184.47
2022-10-22T01:10:34.652Z,96187.09
2022-10-22T01:11:35.785Z,96187.13
2022-10-22T01:12:16.650Z,96178.72
2022-10-22T01:13:05.484Z,96186.00
2022-10-22T01:13:49.580Z,96183.97
2022-10-22T01:14:27.792Z,96180.53
2022-10-22T01:15:31.203Z,96190.38
2022-10-22T01:16:16.193Z,96182.78
2022-10-22T01:17:10.704Z,96184.72
2022-10-22T01:18:01.039Z,96183.03
2022-10-22T01:18:58.618Z,96178.56
2022-10-22T01:19:44.826Z,96182.03
2022-10-22T01:20:38.030Z,96170.97
2022-10-22T01:21:42.697Z,96168.31
2022-10-22T01:22:23.462Z,96170.84
2022-10-22T01:23:25.601Z,96169.75
2022-10-22T01:24:29.730Z,96168.19
2022-10-22T01:25:27.564Z,96163.28
2022-10-22T01:27:41.293Z,96163.06
2022-10-22T01:28:23.765Z,96164.25
2022-10-22T01:29:06.818Z,96163.81
2022-10-22T01:29:51.660Z,96159.69
2022-10-22T01:30:24.721Z,96162.41
2022-10-22T01:30:59.622Z,96160.06
2022-10-22T01:31:39.877Z,96158.63
2022-10-22T01:32:16.983Z,96152.47
2022-10-22T01:32:59.694Z,96148.28
2022-10-22T01:33:32.855Z,96155.50
2022-10-22T01:34:06.969Z,96156.41
2022-10-22T01:34:44.016Z,96146.38
2022-10-22T01:35:22.192Z,96156.94
2022-10-22T01:35:56.000Z,96161.66
2022-10-22T01:36:31.826Z,96167.53
2022-10-22T01:37:03.769Z,96166.88
2022-10-22T01:37:41.828Z,96171.84
2022-10-22T01:38:19.372Z,96179.16
2022-10-22T01:38:52.277Z,96173.84
2022-10-22T01:39:27.118Z,96171.78
2022-10-22T01:40:01.490Z,96168.88
2022-10-22T01:40:35.269Z,96171.19
2022-10-22T01:41:07.876Z,96176.44
2022-10-22T01:41:43.049Z,96173.16
2022-10-22T01:42:15.152Z,96174.72
2022-10-22T01:43:01.415Z,96178.56
2022-10-22T01:43:33.392Z,96176.22
2022-10-22T01:44:05.198Z,96173.25
2022-10-22T01:44:37.530Z,96176.47
2022-10-22T01:45:14.520Z,96179.94
2022-10-22T01:45:58.157Z,96183.16
2022-10-22T01:46:30.087Z,96185.84
2022-10-22T01:47:26.640Z,96186.34
2022-10-22T01:48:10.490Z,96195.47
2022-10-22T01:48:54.047Z,96185.19
2022-10-22T01:49:57.390Z,96190.09
2022-10-22T01:51:06.720Z,96198.81
2022-10-22T01:51:38.574Z,96203.28
2022-10-22T01:52:48.809Z,96210.94
2022-10-22T01:53:36.771Z,96216.03
2022-10-22T01:54:30.304Z,96215.25
2022-10-22T01:55:20.998Z,96211.91
2022-10-22T01:56:00.028Z,96207.25
2022-10-22T01:56:48.810Z,96202.75
2022-10-22T01:57:45.066Z,96206.63
2022-10-22T01:58:35.966Z,96202.53
2022-10-22T01:59:26.435Z,96201.34
2022-10-22T02:00:04.045Z,96205.28
2022-10-22T02:00:40.075Z,96197.59
2022-10-22T02:01:33.930Z,96203.72
2022-10-22T02:02:24.713Z,96206.97
2022-10-22T02:03:06.793Z,96210.22
2022-10-22T02:03:51.347Z,96212.06
2022-10-22T02:04:32.571Z,96199.84
2022-10-22T02:05:08.161Z,96207.50
2022-10-22T02:05:51.770Z,96205.28
2022-10-22T02:06:25.304Z,96206.06
2022-10-22T02:07:04.730Z,96200.06
2022-10-22T02:07:43.827Z,96210.50
2022-10-22T02:08:20.737Z,96209.38
2022-10-22T02:08:54.520Z,96211.13
2022-10-22T02:09:29.382Z,96211.38
2022-10-22T02:10:02.517Z,96208.19
2022-10-22T02:10:38.076Z,96217.50
2022-10-22T02:11:12.795Z,96212.97
2022-10-22T02:11:46.301Z,96209.03
2022-10-22T02:12:21.024Z,96208.59
2022-10-22T02:12:55.964Z,96201.72
2022-10-22T02:13:36.421Z,96205.16
2022-10-22T02:14:10.860Z,96203.97
2022-10-22T02:14:44.171Z,96207.69
2022-10-22T02:15:19.477Z,96204.38
2022-10-22T02:15:53.185Z,96205.00
2022-10-22T02:16:34.749Z,96206.34
2022-10-22T02:17:10.845Z,96207.09
2022-10-22T02:17:45.788Z,96215.09
2022-10-22T02:18:22.313Z,96203.22
2022-10-22T02:18:57.220Z,96212.28
2022-10-22T02:19:55.241Z,96212.97
2022-10-22T02:20:34.614Z,96210.34
2022-10-22T02:21:44.877Z,96213.88
2022-10-22T02:22:17.295Z,96213.94
2022-10-22T02:22:49.838Z,96220.69
2022-10-22T02:23:22.194Z,96221.16
2022-10-22T02:23:54.111Z,96218.38
2022-10-22T02:24:26.042Z,96217.50
2022-10-22T02:24:58.906Z,96214.31
2022-10-22T02:25:35.355Z,96217.06
2022-10-22T02:26:14.582Z,96207.81
2022-10-22T02:27:01.381Z,96213.81
2022-10-22T02:27:41.797Z,96212.03
2022-10-22T02:28:19.408Z,96208.66
2022-10-22T02:29:03.497Z,96210.00
2022-10-22T02:29:37.889Z,96203.09
2022-10-22T02:31:00.336Z,96205.06
2022-10-22T02:31:38.051Z,96202.66
2022-10-22T02:32:16.675Z,96205.88
2022-10-22T02:33:10.023Z,96200.81
2022-10-22T02:33:47.446Z,96212.16
2022-10-22T02:34:24.188Z,96211.81
2022-10-22T02:34:57.464Z,96215.28
2022-10-22T02:35:30.365Z,96217.44
2022-10-22T02:36:03.444Z,96215.22
2022-10-22T02:36:36.015Z,96214.44
2022-10-22T02:37:09.282Z,96209.41
2022-10-22T02:37:50.371Z,96212.53
2022-10-22T02:38:27.236Z,96203.78
2022-10-22T02:38:59.853Z,96201.59
2022-10-22T02:39:33.188Z,96199.44
2022-10-22T02:40:05.734Z,96194.41
2022-10-22T02:40:37.840Z,96188.78
2022-10-22T02:41:10.393Z,96192.22
2022-10-22T02:41:42.636Z,96194.28
2022-10-22T02:42:14.685Z,96197.06
2022-10-22T02:42:48.793Z,96198.09
2022-10-22T02:43:20.711Z,96195.16
2022-10-22T02:43:55.209Z,96181.22
2022-10-22T02:44:27.223Z,96188.97
2022-10-22T02:44:59.058Z,96191.84
2022-10-22T02:45:31.304Z,96187.28
2022-10-22T02:46:03.095Z,96185.59
2022-10-22T02:46:35.016Z,96180.56
2022-10-22T02:47:07.006Z,96181.88
2022-10-22T02:47:38.916Z,96174.75
2022-10-22T02:48:10.707Z,96175.59
2022-10-22T02:48:42.581Z,96182.50
2022-10-22T02:49:14.457Z,96187.06
2022-10-22T02:49:46.260Z,96180.16
2022-10-22T02:50:18.498Z,96183.19
2022-10-22T02:50:50.445Z,96180.94
2022-10-22T02:51:22.399Z,96186.03
2022-10-22T02:51:54.179Z,96185.47
2022-10-22T02:52:26.157Z,96185.66
2022-10-22T02:52:58.003Z,96183.75
2022-10-22T02:53:29.912Z,96193.28
2022-10-22T02:54:01.796Z,96189.97
2022-10-22T02:54:33.586Z,96187.41
2022-10-22T02:55:06.204Z,96191.91
2022-10-22T02:55:38.035Z,96195.72
2022-10-22T02:56:10.127Z,96196.03
2022-10-22T02:56:42.280Z,96194.34
2022-10-22T02:57:14.090Z,96199.13
2022-10-22T02:57:45.952Z,96205.34
2022-10-22T02:58:17.929Z,96200.69
2022-10-22T02:58:49.692Z,96204.78
2022-10-22T02:59:22.234Z,96199.81
2022-10-22T02:59:54.690Z,96204.00
2022-10-22T03:00:26.625Z,96198.41
2022-10-22T03:00:58.623Z,96201.44
2022-10-22T03:01:30.548Z,96204.63
2022-10-22T03:02:03.717Z,96209.47
2022-10-22T03:02:35.679Z,96198.84
2022-10-22T03:03:07.556Z,96200.75
2022-10-22T03:03:39.483Z,96200.06
2022-10-22T03:04:11.345Z,96196.31
2022-10-22T03:04:43.183Z,96198.50
2022-10-22T03:05:15.015Z,96207.03
2022-10-22T03:05:46.880Z,96205.34
2022-10-22T03:06:18.811Z,96201.72
2022-10-22T03:06:50.684Z,96208.28
2022-10-22T03:07:22.509Z,96199.13
2022-10-22T03:07:54.278Z,96202.66
2022-10-22T03:08:26.148Z,96211.63
2022-10-22T03:08:58.000Z,96211.50
2022-10-22T03:09:29.953Z,96221.53
2022-10-22T03:10:03.298Z,96228.03
2022-10-22T03:10:35.364Z,96229.66
2022-10-22T03:11:07.227Z,96226.22
2022-10-22T03:11:39.131Z,96230.16
2022-10-22T03:12:10.919Z,96224.09
2022-10-22T03:12:42.772Z,96224.53
2022-10-22T03:13:14.586Z,96225.72
2022-10-22T03:13:46.382Z,96221.50
2022-10-22T03:14:18.636Z,96223.81
2022-10-22T03:14:50.586Z,96215.28
2022-10-22T03:15:22.544Z,96233.69
2022-10-22T03:15:54.433Z,96221.50
2022-10-22T03:16:26.336Z,96223.44
2022-10-22T03:16:58.695Z,96223.44
2022-10-22T03:17:30.460Z,96223.53
2022-10-22T03:18:02.312Z,96224.78
2022-10-22T03:18:34.248Z,96225.38
2022-10-22T03:19:06.127Z,96220.88
2022-10-22T03:19:37.972Z,96224.25
2022-10-22T03:20:10.089Z,96226.78
2022-10-22T03:20:41.939Z,96220.44
2022-10-22T03:21:39.087Z,96226.06
2022-10-22T03:22:19.924Z,96230.16
2022-10-22T03:22:52.606Z,96228.69
2022-10-22T03:23:24.541Z,96226.84
2022-10-22T03:23:56.856Z,96230.84
2022-10-22T03:24:35.760Z,96230.56
2022-10-22T03:25:14.004Z,96228.59
2022-10-22T03:25:49.568Z,96232.50
2022-10-22T03:26:22.040Z,96224.78
2022-10-22T03:26:54.148Z,96227.88
2022-10-22T03:27:28.309Z,96222.13
2022-10-22T03:28:06.968Z,96226.28
2022-10-22T03:28:40.153Z,96237.34
2022-10-22T03:29:14.422Z,96233.81
2022-10-22T03:29:47.077Z,96235.28
2022-10-22T03:30:19.166Z,96236.94
2022-10-22T03:30:51.026Z,96232.53
2022-10-22T03:31:22.832Z,96236.00
2022-10-22T03:31:55.238Z,96237.97
2022-10-22T03:32:27.060Z,96238.69
2022-10-22T03:32:59.065Z,96227.31
2022-10-22T03:33:30.871Z,96234.41
2022-10-22T03:34:02.726Z,96232.88
2022-10-22T03:34:34.787Z,96232.09
2022-10-22T03:35:07.636Z,96227.16
2022-10-22T03:35:44.737Z,96243.53
2022-10-22T03:36:16.638Z,96235.13
2022-10-22T03:36:49.815Z,96235.56
2022-10-22T03:37:22.693Z,96229.84
2022-10-22T03:37:54.946Z,96237.44
2022-10-22T03:38:27.005Z,96236.34
2022-10-22T03:39:01.191Z,96237.88
2022-10-22T03:39:35.585Z,96237.16
2022-10-22T03:40:08.440Z,96239.91
2022-10-22T03:40:42.737Z,96238.63
2022-10-22T03:41:14.833Z,96241.53
2022-10-22T03:41:48.246Z,96241.59
2022-10-22T03:42:21.326Z,96240.31
2022-10-22T03:42:53.261Z,96234.63
2022-10-22T03:43:25.264Z,96236.88
2022-10-22T03:43:57.714Z,96238.44
2022-10-22T03:44:30.781Z,96233.94
2022-10-22T03:45:02.586Z,96233.56
2022-10-22T03:45:34.493Z,96230.00
2022-10-22T03:46:06.695Z,96224.50
2022-10-22T03:46:38.516Z,96228.72
2022-10-22T03:47:10.472Z,96216.53
2022-10-22T03:47:42.438Z,96226.72
2022-10-22T03:48:14.464Z,96229.69
2022-10-22T03:48:46.315Z,96230.88
2022-10-22T03:49:18.105Z,96224.84
2022-10-22T03:49:51.106Z,96225.75
2022-10-22T03:50:22.934Z,96235.00
2022-10-22T03:50:54.825Z,96227.09
2022-10-22T03:51:28.173Z,96233.94
2022-10-22T03:52:09.072Z,96232.53
2022-10-22T03:52:40.899Z,96231.25
2022-10-22T03:53:12.866Z,96233.06
2022-10-22T03:53:44.762Z,96230.88
2022-10-22T03:54:17.009Z,96231.84
2022-10-22T03:54:48.952Z,96227.31
2022-10-22T03:55:21.071Z,96222.66
2022-10-22T03:55:52.952Z,96236.41
2022-10-22T03:56:24.774Z,96235.00
2022-10-22T03:56:56.628Z,96233.72
2022-10-22T03:57:28.454Z,96232.84
2022-10-22T03:58:00.432Z,96230.09
2022-10-22T03:58:32.252Z,96228.59
2022-10-22T03:59:04.213Z,96224.63
2022-10-22T03:59:40.455Z,96223.59
2022-10-22T04:00:12.412Z,96229.72
2022-10-22T04:00:44.359Z,96229.50
2022-10-22T04:01:16.244Z,96231.84
2022-10-22T04:01:48.117Z,96238.47
2022-10-22T04:02:19.851Z,96238.53
2022-10-22T04:02:51.576Z,96235.34
2022-10-22T04:03:23.370Z,96237.34
2022-10-22T04:03:56.057Z,96236.34
2022-10-22T04:04:27.879Z,96238.16
2022-10-22T04:04:59.727Z,96238.91
2022-10-22T04:05:33.799Z,96247.06
2022-10-22T04:06:08.466Z,96247.31
2022-10-22T04:06:40.194Z,96245.25
2022-10-22T04:07:12.042Z,96248.75
2022-10-22T04:07:44.022Z,96254.28
2022-10-22T04:08:16.032Z,96251.06
2022-10-22T04:08:48.572Z,96248.56
2022-10-22T04:09:20.453Z,96255.03
2022-10-22T04:09:52.245Z,96251.94
2022-10-22T04:10:24.110Z,96261.31
2022-10-22T04:10:56.083Z,96258.19
2022-10-22T04:11:27.940Z,96259.66
2022-10-22T04:12:00.391Z,96258.53
2022-10-22T04:12:32.212Z,96260.53
2022-10-22T04:13:04.002Z,96256.38
2022-10-22T04:13:36.112Z,96265.25
2022-10-22T04:14:08.012Z,96257.84
2022-10-22T04:14:39.888Z,96267.72
2022-10-22T04:15:11.835Z,96266.50
2022-10-22T04:15:43.590Z,96271.59
2022-10-22T04:16:18.983Z,96265.47
2022-10-22T04:16:50.879Z,96268.75
2022-10-22T04:17:22.931Z,96272.19
2022-10-22T04:17:55.409Z,96273.66
2022-10-22T04:18:28.158Z,96276.00
2022-10-22T04:18:59.955Z,96274.88
2022-10-22T04:19:31.846Z,96275.75
2022-10-22T04:20:04.561Z,96282.44
2022-10-22T04:20:36.367Z,96286.13
2022-10-22T04:21:10.022Z,96292.00
2022-10-22T04:21:41.821Z,96297.03
2022-10-22T04:22:13.806Z,96291.56
2022-10-22T04:22:45.609Z,96290.94
2022-10-22T04:23:17.366Z,96289.47
2022-10-22T04:23:52.105Z,96283.69
2022-10-22T04:24:23.927Z,96285.59
2022-10-22T04:24:55.877Z,96290.19
2022-10-22T04:25:27.668Z,96283.63
2022-10-22T04:26:01.281Z,96282.31
2022-10-22T04:26:33.055Z,96286.47
2022-10-22T04:27:10.460Z,96280.84
2022-10-22T04:27:45.657Z,96284.31
2022-10-22T04:28:21.156Z,96288.59
2022-10-22T04:28:53.467Z,96294.06
2022-10-22T04:29:25.495Z,96294.41
2022-10-22T04:29:57.343Z,96287.06
2022-10-22T04:30:29.118Z,96285.38
2022-10-22T04:31:00.921Z,96291.06
2022-10-22T04:31:32.768Z,96290.13
2022-10-22T04:32:04.844Z,96290.97
2022-10-22T04:32:36.637Z,96288.06
2022-10-22T04:33:08.416Z,96292.44
2022-10-22T04:33:42.062Z,96290.88
2022-10-22T04:34:14.069Z,96279.56
2022-10-22T04:34:45.999Z,96285.59
2022-10-22T04:35:17.859Z,96294.09
2022-10-22T04:35:49.822Z,96281.22
2022-10-22T04:36:22.201Z,96291.94
2022-10-22T04:36:54.052Z,96285.09
2022-10-22T04:37:25.852Z,96290.09
2022-10-22T04:37:57.715Z,96290.97
2022-10-22T04:38:29.488Z,96290.78
2022-10-22T04:39:02.051Z,96279.22
2022-10-22T04:39:33.947Z,96290.88
2022-10-22T04:40:06.313Z,96291.22
2022-10-22T04:40:38.185Z,96286.38
2022-10-22T04:41:19.386Z,96287.84
2022-10-22T04:41:51.860Z,96281.72
2022-10-22T04:42:23.799Z,96284.50
2022-10-22T04:42:56.405Z,96281.09
2022-10-22T04:43:28.157Z,96288.72
2022-10-22T04:44:00.639Z,96275.00
2022-10-22T04:44:32.709Z,96286.31
2022-10-22T04:45:04.802Z,96287.44
2022-10-22T04:45:36.858Z,96285.59
2022-10-22T04:46:09.847Z,96281.09
2022-10-22T04:46:41.861Z,96287.66
2022-10-22T04:47:13.769Z,96275.41
2022-10-22T04:47:45.541Z,96277.41
2022-10-22T04:48:17.352Z,96279.69
2022-10-22T04:48:51.063Z,96274.59
2022-10-22T04:49:22.871Z,96277.41
2022-10-22T04:49:54.664Z,96278.47
2022-10-22T04:50:26.525Z,96274.75
2022-10-22T04:50:59.118Z,96275.69
2022-10-22T04:51:32.117Z,96278.19
2022-10-22T04:52:04.059Z,96284.25
2022-10-22T04:52:35.826Z,96286.84
2022-10-22T04:53:07.593Z,96282.25
2022-10-22T04:53:42.274Z,96284.16
2022-10-22T04:54:15.055Z,96288.47
2022-10-22T04:54:47.092Z,96287.25
2022-10-22T04:55:19.174Z,96289.94
2022-10-22T04:55:51.084Z,96282.44
2022-10-22T04:56:28.281Z,96284.06
2022-10-22T04:57:00.410Z,96274.88
2022-10-22T04:57:32.608Z,96271.09
2022-10-22T04:58:04.566Z,96271.28
2022-10-22T04:58:36.510Z,96271.91
2022-10-22T04:59:09.200Z,96275.34
2022-10-22T04:59:41.069Z,96272.25
2022-10-22T05:00:13.128Z,96273.38
2022-10-22T05:00:45.109Z,96272.59
2022-10-22T05:01:20.592Z,96277.00
2022-10-22T05:01:52.434Z,96267.03
2022-10-22T05:02:24.389Z,96265.31
2022-10-22T05:02:56.187Z,96276.13
2022-10-22T05:03:28.403Z,96261.00
2022-10-22T05:04:02.288Z,96269.38
2022-10-22T05:04:34.158Z,96264.34
2022-10-22T05:05:06.066Z,96264.09
2022-10-22T05:05:37.838Z,96266.03
2022-10-22T05:06:09.872Z,96271.91
2022-10-22T05:06:42.217Z,96273.28
2022-10-22T05:07:15.035Z,96265.75
2022-10-22T05:07:47.204Z,96260.81
2022-10-22T05:08:19.033Z,96263.59
2022-10-22T05:08:56.222Z,96259.34
2022-10-22T05:09:28.152Z,96259.88
2022-10-22T05:10:02.280Z,96261.75
2022-10-22T05:10:34.076Z,96258.34
2022-10-22T05:11:12.075Z,96259.47
2022-10-22T05:11:46.333Z,96263.59
2022-10-22T05:12:18.203Z,96262.56
2022-10-22T05:12:50.101Z,96262.56
2022-10-22T05:13:21.916Z,96260.41
2022-10-22T05:13:55.324Z,96264.19
2022-10-22T05:14:27.471Z,96248.22
2022-10-22T05:14:59.350Z,96254.19
2022-10-22T05:15:31.191Z,96253.22
2022-10-22T05:16:03.009Z,96251.06
2022-10-22T05:16:35.494Z,96247.63
2022-10-22T05:17:07.335Z,96250.78
2022-10-22T05:17:39.495Z,96246.50
2022-10-22T05:18:12.027Z,96240.00
2022-10-22T05:18:44.953Z,96237.78
2022-10-22T05:19:29.336Z,96231.81
2022-10-22T05:20:01.077Z,96235.53
2022-10-22T05:20:32.946Z,96236.56
2022-10-22T05:21:08.657Z,96224.56
2022-10-22T05:21:40.637Z,96223.72
2022-10-22T05:22:12.528Z,96226.88
2022-10-22T05:22:44.319Z,96223.59
2022-10-22T05:23:16.195Z,96221.66
2022-10-22T05:23:49.805Z,96222.66
2022-10-22T05:24:21.989Z,96219.72
2022-10-22T05:24:54.171Z,96220.72
2022-10-22T05:25:25.979Z,96222.69
2022-10-22T05:25:57.804Z,96222.50
2022-10-22T05:26:29.962Z,96215.50
2022-10-22T05:27:01.926Z,96224.66
2022-10-22T05:27:33.735Z,96232.34
2022-10-22T05:28:05.940Z,96224.91
2022-10-22T05:28:38.335Z,96226.88
2022-10-22T05:29:10.192Z,96212.75
2022-10-22T05:29:41.976Z,96215.94
2022-10-22T05:30:13.963Z,96213.03
2022-10-22T05:30:56.018Z,96213.38
2022-10-22T05:31:28.973Z,96202.53
2022-10-22T05:32:00.860Z,96203.78
2022-10-22T05:32:35.240Z,96203.88
2022-10-22T05:33:07.175Z,96204.72
2022-10-22T05:33:39.609Z,96215.44
2022-10-22T05:34:11.995Z,96212.75
2022-10-22T05:34:43.815Z,96219.84
2022-10-22T05:35:16.397Z,96220.00
2022-10-22T05:35:51.612Z,96218.53
2022-10-22T05:36:24.105Z,96218.69
2022-10-22T05:36:55.893Z,96220.19
2022-10-22T05:37:27.699Z,96221.88
2022-10-22T05:37:59.523Z,96224.13
2022-10-22T05:38:33.109Z,96220.88
2022-10-22T05:39:05.784Z,96226.16
2022-10-22T05:39:40.214Z,96230.72
2022-10-22T05:40:26.521Z,96228.47
2022-10-22T05:41:07.985Z,96224.84
2022-10-22T05:41:39.828Z,96228.28
2022-10-22T05:42:11.625Z,96220.72
2022-10-22T05:42:43.528Z,96225.69
2022-10-22T05:43:15.425Z,96220.44
2022-10-22T05:43:47.605Z,96228.03
2022-10-22T05:44:19.508Z,96221.91
2022-10-22T05:44:51.324Z,96222.50
2022-10-22T05:45:24.165Z,96229.06
2022-10-22T05:45:56.100Z,96230.19
2022-10-22T05:46:30.245Z,96231.91
2022-10-22T05:47:02.047Z,96234.66
2022-10-22T05:47:33.908Z,96238.31
2022-10-22T05:48:06.619Z,96247.53
2022-10-22T05:48:38.834Z,96241.31
2022-10-22T05:49:15.407Z,96245.56
2022-10-22T05:49:47.221Z,96245.47
2022-10-22T05:50:19.009Z,96253.31
2022-10-22T05:50:51.052Z,96245.22
2022-10-22T05:51:24.501Z,96247.09
2022-10-22T05:51:56.278Z,96247.63
2022-10-22T05:52:28.113Z,96245.69
2022-10-22T05:52:59.882Z,96246.91
2022-10-22T05:53:33.274Z,96254.31
2022-10-22T05:54:07.903Z,96248.13
2022-10-22T05:54:39.916Z,96260.41
2022-10-22T05:55:11.714Z,96261.50
2022-10-22T05:55:43.507Z,96271.44
2022-10-22T05:56:16.534Z,96279.41
2022-10-22T05:56:48.740Z,96281.22
2022-10-22T05:57:20.539Z,96280.88
2022-10-22T05:57:52.316Z,96283.44
2022-10-22T05:58:24.175Z,96286.66
2022-10-22T05:58:56.474Z,96287.00
2022-10-22T05:59:28.341Z,96289.50
2022-10-22T06:00:00.111Z,96287.84
2022-10-22T06:00:32.021Z,96281.56
2022-10-22T06:01:12.016Z,96284.59
2022-10-22T06:01:44.001Z,96285.44
2022-10-22T06:02:15.873Z,96288.47
2022-10-22T06:02:51.547Z,96285.28
2022-10-22T06:03:23.348Z,96282.78
2022-10-22T06:03:58.778Z,96284.31
2022-10-22T06:04:30.683Z,96283.38
2022-10-22T06:05:02.574Z,96281.31
2022-10-22T06:05:38.185Z,96285.53
2022-10-22T06:06:20.221Z,96289.69
2022-10-22T06:06:53.674Z,96284.75
2022-10-22T06:07:25.734Z,96283.72
2022-10-22T06:07:57.811Z,96280.97
2022-10-22T06:08:30.001Z,96289.84
2022-10-22T06:09:23.953Z,96286.22
2022-10-22T06:09:55.932Z,96288.47
2022-10-22T06:10:28.269Z,96294.69
2022-10-22T06:11:00.309Z,96291.47
2022-10-22T06:11:34.977Z,96297.22
2022-10-22T06:12:10.830Z,96302.56
2022-10-22T06:12:43.159Z,96298.75
2022-10-22T06:13:15.162Z,96302.91
2022-10-22T06:13:47.984Z,96304.25
2022-10-22T06:14:21.538Z,96313.09
2022-10-22T06:14:53.444Z,96307.03
2022-10-22T06:15:25.240Z,96307.88
2022-10-22T06:15:57.146Z,96301.44
2022-10-22T06:16:30.115Z,96304.19
2022-10-22T06:17:01.953Z,96304.53
2022-10-22T06:17:33.724Z,96313.50
2022-10-22T06:18:05.543Z,96313.97
2022-10-22T06:18:37.412Z,96317.25
2022-10-22T06:19:13.769Z,96309.03
2022-10-22T06:19:45.692Z,96311.16
2022-10-22T06:20:17.655Z,96314.28
2022-10-22T06:20:49.702Z,96316.28
2022-10-22T06:21:21.479Z,96308.69
2022-10-22T06:21:53.315Z,96310.22
2022-10-22T06:22:25.145Z,96318.78
2022-10-22T06:22:56.974Z,96319.84
2022-10-22T06:23:28.939Z,96318.97
2022-10-22T06:24:01.652Z,96320.00
2022-10-22T06:24:33.587Z,96322.16
2022-10-22T06:25:08.184Z,96324.66
2022-10-22T06:25:40.122Z,96319.91
2022-10-22T06:26:12.157Z,96322.50
2022-10-22T06:26:44.327Z,96326.03
2022-10-22T06:27:16.049Z,96320.53
2022-10-22T06:27:51.899Z,96315.31
2022-10-22T06:29:02.192Z,96329.16
2022-10-22T06:29:34.292Z,96327.69
2022-10-22T06:30:06.740Z,96322.66
2022-10-22T06:30:42.884Z,96328.13
2022-10-22T06:31:17.799Z,96326.47
2022-10-22T06:31:49.671Z,96332.09
2022-10-22T06:32:21.466Z,96321.31
2022-10-22T06:32:53.260Z,96325.19
2022-10-22T06:33:26.991Z,96320.25
2022-10-22T06:33:58.829Z,96323.34
2022-10-22T06:34:30.722Z,96320.78
2022-10-22T06:35:02.682Z,96322.16
2022-10-22T06:35:34.592Z,96326.38
2022-10-22T06:36:15.253Z,96328.44
2022-10-22T06:36:47.214Z,96335.97
2022-10-22T06:37:19.097Z,96341.84
2022-10-22T06:37:50.932Z,96330.53
2022-10-22T06:38:22.971Z,96337.44
2022-10-22T06:38:56.343Z,96345.81
2022-10-22T06:39:28.284Z,96345.75
2022-10-22T06:40:00.112Z,96342.19
2022-10-22T06:40:33.484Z,96340.81
2022-10-22T06:41:08.321Z,96342.72
2022-10-22T06:41:41.231Z,96333.22
2022-10-22T06:42:13.093Z,96347.72
2022-10-22T06:42:44.931Z,96350.13
2022-10-22T06:43:16.723Z,96341.59
2022-10-22T06:43:48.581Z,96340.13
2022-10-22T06:44:21.185Z,96340.88
2022-10-22T06:44:53.075Z,96343.41
2022-10-22T06:45:25.172Z,96345.13
2022-10-22T06:46:01.713Z,96333.13
2022-10-22T06:46:33.586Z,96338.13
2022-10-22T06:47:06.001Z,96341.69
2022-10-22T06:47:38.240Z,96342.28
2022-10-22T06:48:10.225Z,96342.53